createdAt,value
2023-05-01T00:00:45.204Z,0.00
2023-05-01T00:01:45.197Z,0.00
2023-05-01T00:02:45.269Z,0.00
2023-05-01T00:03:45.321Z,0.00
2023-05-01T00:04:45.184Z,0.00
2023-05-01T00:05:45.132Z,0.00
2023-05-01T00:06:48.230Z,0.00
2023-05-01T00:07:48.162Z,0.00
2023-05-01T00:08:45.075Z,0.00
2023-05-01T00:09:45.079Z,0.00
2023-05-01T00:10:45.047Z,0.00
2023-05-01T00:11:45.043Z,0.00
2023-05-01T00:12:45.018Z,0.00
2023-05-01T00:13:45.114Z,0.00
2023-05-01T00:14:44.992Z,0.00
2023-05-01T00:15:44.990Z,0.00
2023-05-01T00:16:45.013Z,0.00
2023-05-01T00:17:44.997Z,0.00
2023-05-01T00:18:44.997Z,0.00
2023-05-01T00:19:44.978Z,0.00
2023-05-01T00:20:44.910Z,0.00
2023-05-01T00:21:44.897Z,0.00
2023-05-01T00:22:44.878Z,0.00
2023-05-01T00:23:44.869Z,0.00
2023-05-01T00:24:44.883Z,0.00
2023-05-01T00:25:44.832Z,0.00
2023-05-01T00:26:47.840Z,0.00
2023-05-01T00:27:47.844Z,0.00
2023-05-01T00:28:44.810Z,0.00
2023-05-01T00:29:44.820Z,0.00
2023-05-01T00:30:44.779Z,0.00
2023-05-01T00:31:44.854Z,0.00
2023-05-01T00:32:44.782Z,0.00
2023-05-01T00:33:44.730Z,0.00
2023-05-01T00:34:44.750Z,0.00
2023-05-01T00:35:44.722Z,0.00
2023-05-01T00:36:44.693Z,0.00
2023-05-01T00:37:44.678Z,0.00
2023-05-01T00:38:44.669Z,0.00
2023-05-01T00:39:44.705Z,0.00
2023-05-01T00:40:44.640Z,0.00
2023-05-01T00:41:44.660Z,0.00
2023-05-01T00:42:44.616Z,0.00
2023-05-01T00:43:44.599Z,0.00
2023-05-01T00:44:44.611Z,0.00
2023-05-01T00:45:44.843Z,0.00
2023-05-01T00:46:47.552Z,0.00
2023-05-01T00:47:47.640Z,0.00
2023-05-01T00:48:44.553Z,0.00
2023-05-01T00:49:44.527Z,0.00
2023-05-01T00:50:44.534Z,0.00
2023-05-01T00:51:44.516Z,0.00
2023-05-01T00:52:44.480Z,0.00
2023-05-01T00:53:44.461Z,0.00
2023-05-01T00:54:44.474Z,0.00
2023-05-01T00:55:44.442Z,0.00
2023-05-01T00:56:44.494Z,0.00
2023-05-01T00:57:44.427Z,0.00
2023-05-01T00:58:44.397Z,0.00
2023-05-01T00:59:44.382Z,0.00
2023-05-01T01:00:44.417Z,0.00
2023-05-01T01:01:44.442Z,0.00
2023-05-01T01:02:44.386Z,0.00
2023-05-01T01:03:44.329Z,0.00
2023-05-01T01:04:44.459Z,0.00
2023-05-01T01:05:44.293Z,0.00
2023-05-01T01:06:47.606Z,0.00
2023-05-01T01:07:47.283Z,0.00
2023-05-01T01:08:44.344Z,0.00
2023-05-01T01:09:44.239Z,0.00
2023-05-01T01:10:44.239Z,0.00
2023-05-01T01:11:44.212Z,0.00
2023-05-01T01:12:44.242Z,0.00
2023-05-01T01:13:44.195Z,0.00
2023-05-01T01:14:44.171Z,0.00
2023-05-01T01:15:44.156Z,0.00
2023-05-01T01:16:44.194Z,0.00
2023-05-01T01:17:44.173Z,0.00
2023-05-01T01:18:44.126Z,0.00
2023-05-01T01:19:44.135Z,0.00
2023-05-01T01:20:44.120Z,0.00
2023-05-01T01:21:44.095Z,0.00
2023-05-01T01:22:44.065Z,0.00
2023-05-01T01:23:44.060Z,0.00
2023-05-01T01:24:44.062Z,0.00
2023-05-01T01:25:44.029Z,0.00
2023-05-01T01:26:47.016Z,0.00
2023-05-01T01:27:47.004Z,0.00
2023-05-01T01:28:43.983Z,0.00
2023-05-01T01:29:44.021Z,0.00
2023-05-01T01:30:43.994Z,0.00
2023-05-01T01:31:44.017Z,0.00
2023-05-01T01:32:43.947Z,0.00
2023-05-01T01:33:43.931Z,0.00
2023-05-01T01:34:43.897Z,0.00
2023-05-01T01:35:43.938Z,0.00
2023-05-01T01:36:43.958Z,0.00
2023-05-01T01:37:43.863Z,0.00
2023-05-01T01:38:43.854Z,0.00
2023-05-01T01:39:43.828Z,0.00
2023-05-01T01:40:43.840Z,0.00
2023-05-01T01:41:43.802Z,0.00
2023-05-01T01:42:43.829Z,0.00
2023-05-01T01:43:43.774Z,0.00
2023-05-01T01:44:43.785Z,0.00
2023-05-01T01:45:43.748Z,0.00
2023-05-01T01:46:46.756Z,0.00
2023-05-01T01:47:46.792Z,0.00
2023-05-01T01:48:43.730Z,0.00
2023-05-01T01:49:43.704Z,0.00
2023-05-01T01:50:43.690Z,0.00
2023-05-01T01:51:43.692Z,0.00
2023-05-01T01:52:43.659Z,0.00
2023-05-01T01:53:43.643Z,0.00
2023-05-01T01:54:43.650Z,0.00
2023-05-01T01:55:43.643Z,0.00
2023-05-01T01:56:43.621Z,0.00
2023-05-01T01:57:43.644Z,0.00
2023-05-01T01:58:43.570Z,0.00
2023-05-01T01:59:43.559Z,0.00
2023-05-01T02:00:43.563Z,0.00
2023-05-01T02:01:43.567Z,0.00
2023-05-01T02:02:43.577Z,0.00
2023-05-01T02:03:43.638Z,0.00
2023-05-01T02:04:43.506Z,0.00
2023-05-01T02:05:43.498Z,0.00
2023-05-01T02:06:46.600Z,0.00
2023-05-01T02:07:46.496Z,0.00
2023-05-01T02:08:43.437Z,0.00
2023-05-01T02:09:43.486Z,0.00
2023-05-01T02:10:43.409Z,0.00
2023-05-01T02:11:43.390Z,0.00
2023-05-01T02:12:43.416Z,0.00
2023-05-01T02:13:43.370Z,0.00
2023-05-01T02:14:43.358Z,0.00
2023-05-01T02:15:43.401Z,0.00
2023-05-01T02:16:43.382Z,0.00
2023-05-01T02:17:43.404Z,0.00
2023-05-01T02:18:43.330Z,0.00
2023-05-01T02:19:43.305Z,0.00
2023-05-01T02:20:43.305Z,0.00
2023-05-01T02:21:43.284Z,0.00
2023-05-01T02:22:43.256Z,0.00
2023-05-01T02:23:43.231Z,0.00
2023-05-01T02:24:43.220Z,0.00
2023-05-01T02:25:43.243Z,0.00
2023-05-01T02:26:46.191Z,0.00
2023-05-01T02:27:46.179Z,0.00
2023-05-01T02:28:43.172Z,0.00
2023-05-01T02:29:43.145Z,0.00
2023-05-01T02:30:43.188Z,0.00
2023-05-01T02:31:43.221Z,0.00
2023-05-01T02:32:43.131Z,0.00
2023-05-01T02:33:43.120Z,0.00
2023-05-01T02:34:43.102Z,0.00
2023-05-01T02:35:43.116Z,0.00
2023-05-01T02:36:43.063Z,0.00
2023-05-01T02:37:43.035Z,0.00
2023-05-01T02:38:43.036Z,0.00
2023-05-01T02:39:43.048Z,0.00
2023-05-01T02:40:42.999Z,0.00
2023-05-01T02:41:43.018Z,0.00
2023-05-01T02:42:42.984Z,0.00
2023-05-01T02:43:42.959Z,0.00
2023-05-01T02:44:42.960Z,0.00
2023-05-01T02:45:42.946Z,0.00
2023-05-01T02:46:45.979Z,0.00
2023-05-01T02:47:45.957Z,0.00
2023-05-01T02:48:42.913Z,0.00
2023-05-01T02:49:42.880Z,0.00
2023-05-01T02:50:42.928Z,0.00
2023-05-01T02:51:42.845Z,0.00
2023-05-01T02:52:42.831Z,0.00
2023-05-01T02:53:42.839Z,0.00
2023-05-01T02:54:42.811Z,0.00
2023-05-01T02:55:42.798Z,0.00
2023-05-01T02:56:42.828Z,0.00
2023-05-01T02:57:42.792Z,0.00
2023-05-01T02:58:42.760Z,0.00
2023-05-01T02:59:42.744Z,0.00
2023-05-01T03:00:42.728Z,0.00
2023-05-01T03:01:42.756Z,0.00
2023-05-01T03:02:42.862Z,0.00
2023-05-01T03:03:42.794Z,0.00
2023-05-01T03:04:42.799Z,0.00
2023-05-01T03:05:42.660Z,0.00
2023-05-01T03:06:45.731Z,0.00
2023-05-01T03:07:45.667Z,0.00
2023-05-01T03:08:42.611Z,0.00
2023-05-01T03:09:42.600Z,0.00
2023-05-01T03:10:42.636Z,4.00
2023-05-01T03:11:42.569Z,4.00
2023-05-01T03:12:42.580Z,0.00
2023-05-01T03:13:42.583Z,0.00
2023-05-01T03:14:42.536Z,0.00
2023-05-01T03:15:42.525Z,4.00
2023-05-01T03:16:42.523Z,4.00
2023-05-01T03:17:42.565Z,4.00
2023-05-01T03:18:42.476Z,4.00
2023-05-01T03:19:42.484Z,4.00
2023-05-01T03:20:42.446Z,8.00
2023-05-01T03:21:42.425Z,8.00
2023-05-01T03:22:42.424Z,8.00
2023-05-01T03:23:42.401Z,8.00
2023-05-01T03:24:42.413Z,8.00
2023-05-01T03:25:42.399Z,8.00
2023-05-01T03:26:45.370Z,12.00
2023-05-01T03:27:45.357Z,12.00
2023-05-01T03:28:42.327Z,16.00
2023-05-01T03:29:42.353Z,20.00
2023-05-01T03:30:42.311Z,20.00
2023-05-01T03:31:42.341Z,24.00
2023-05-01T03:32:42.307Z,24.00
2023-05-01T03:33:42.283Z,28.00
2023-05-01T03:34:42.300Z,32.00
2023-05-01T03:35:42.266Z,36.00
2023-05-01T03:36:42.215Z,40.00
2023-05-01T03:37:42.196Z,44.00
2023-05-01T03:38:42.196Z,48.00
2023-05-01T03:39:42.191Z,52.00
2023-05-01T03:40:42.177Z,60.00
2023-05-01T03:41:42.137Z,68.00
2023-05-01T03:42:42.135Z,72.00
2023-05-01T03:43:42.111Z,80.00
2023-05-01T03:44:42.100Z,96.00
2023-05-01T03:45:44.716Z,108.00
2023-05-01T03:46:45.115Z,120.00
2023-05-01T03:47:45.083Z,128.00
2023-05-01T03:48:42.072Z,144.00
2023-05-01T03:49:42.027Z,156.00
2023-05-01T03:50:42.021Z,172.00
2023-05-01T03:51:42.037Z,188.00
2023-05-01T03:52:41.994Z,204.00
2023-05-01T03:53:41.967Z,220.00
2023-05-01T03:54:41.964Z,236.00
2023-05-01T03:55:41.949Z,252.00
2023-05-01T03:56:41.972Z,276.00
2023-05-01T03:57:41.923Z,300.00
2023-05-01T03:58:41.920Z,332.00
2023-05-01T03:59:41.888Z,360.00
2023-05-01T04:00:41.923Z,392.00
2023-05-01T04:01:41.906Z,420.00
2023-05-01T04:02:42.000Z,448.00
2023-05-01T04:03:41.980Z,480.00
2023-05-01T04:04:41.978Z,520.00
2023-05-01T04:05:41.806Z,556.00
2023-05-01T04:06:45.002Z,592.00
2023-05-01T04:07:44.785Z,624.00
2023-05-01T04:08:41.802Z,656.00
2023-05-01T04:09:41.761Z,688.00
2023-05-01T04:10:41.765Z,720.00
2023-05-01T04:11:41.740Z,760.00
2023-05-01T04:12:41.739Z,804.00
2023-05-01T04:13:41.724Z,852.00
2023-05-01T04:14:41.705Z,908.00
2023-05-01T04:15:41.699Z,964.00
2023-05-01T04:16:41.799Z,1016.00
2023-05-01T04:17:41.649Z,1060.00
2023-05-01T04:18:41.667Z,1096.00
2023-05-01T04:19:41.613Z,1136.00
2023-05-01T04:20:41.612Z,1184.00
2023-05-01T04:21:41.588Z,1232.00
2023-05-01T04:22:41.591Z,1292.00
2023-05-01T04:23:41.601Z,1356.00
2023-05-01T04:24:41.561Z,1420.00
2023-05-01T04:25:41.538Z,1484.00
2023-05-01T04:26:44.539Z,1556.00
2023-05-01T04:27:44.527Z,1636.00
2023-05-01T04:28:41.502Z,1712.00
2023-05-01T04:29:41.509Z,1780.00
2023-05-01T04:30:41.480Z,1836.00
2023-05-01T04:31:41.466Z,1884.00
2023-05-01T04:32:41.571Z,1932.00
2023-05-01T04:33:41.429Z,1996.00
2023-05-01T04:34:41.432Z,2096.00
2023-05-01T04:35:41.396Z,2276.00
2023-05-01T04:36:41.388Z,2504.00
2023-05-01T04:37:41.382Z,2704.00
2023-05-01T04:38:41.357Z,2920.00
2023-05-01T04:39:41.377Z,3120.00
2023-05-01T04:40:41.335Z,3104.00
2023-05-01T04:41:41.328Z,3024.00
2023-05-01T04:42:41.313Z,2980.00
2023-05-01T04:43:41.284Z,2948.00
2023-05-01T04:44:41.315Z,2916.00
2023-05-01T04:45:44.444Z,2928.00
2023-05-01T04:46:44.318Z,2936.00
2023-05-01T04:47:44.316Z,2912.00
2023-05-01T04:48:41.237Z,2896.00
2023-05-01T04:49:41.232Z,2948.00
2023-05-01T04:50:41.191Z,3024.00
2023-05-01T04:51:41.168Z,3264.00
2023-05-01T04:52:41.160Z,3432.00
2023-05-01T04:53:41.165Z,3372.00
2023-05-01T04:54:41.147Z,3392.00
2023-05-01T04:55:41.156Z,3452.00
2023-05-01T04:56:41.098Z,3464.00
2023-05-01T04:57:41.086Z,3652.00
2023-05-01T04:58:41.073Z,4096.00
2023-05-01T04:59:41.063Z,4168.00
2023-05-01T05:00:41.095Z,4292.00
2023-05-01T05:01:41.168Z,4788.00
2023-05-01T05:02:41.085Z,5540.00
2023-05-01T05:03:41.115Z,5972.00
2023-05-01T05:04:41.014Z,6152.00
2023-05-01T05:05:40.980Z,5976.00
2023-05-01T05:06:44.008Z,6300.00
2023-05-01T05:07:43.962Z,6796.00
2023-05-01T05:08:40.938Z,7296.00
2023-05-01T05:09:40.943Z,8116.00
2023-05-01T05:10:40.920Z,8028.00
2023-05-01T05:11:40.919Z,7744.00
2023-05-01T05:12:40.878Z,8236.00
2023-05-01T05:13:40.869Z,8400.00
2023-05-01T05:14:40.872Z,8780.00
2023-05-01T05:15:40.843Z,9140.00
2023-05-01T05:16:40.887Z,9104.00
2023-05-01T05:17:40.887Z,9016.00
2023-05-01T05:18:40.808Z,9344.00
2023-05-01T05:19:40.801Z,9836.00
2023-05-01T05:20:40.771Z,9948.00
2023-05-01T05:21:40.807Z,9920.00
2023-05-01T05:22:40.752Z,9884.00
2023-05-01T05:23:40.746Z,9924.00
2023-05-01T05:24:40.737Z,9944.00
2023-05-01T05:25:40.729Z,10276.00
2023-05-01T05:26:43.736Z,10496.00
2023-05-01T05:27:43.691Z,10192.00
2023-05-01T05:28:40.661Z,9600.00
2023-05-01T05:29:40.652Z,9720.00
2023-05-01T05:30:40.654Z,9768.00
2023-05-01T05:31:40.691Z,10088.00
2023-05-01T05:32:40.638Z,10400.00
2023-05-01T05:33:40.625Z,10648.00
2023-05-01T05:34:40.612Z,10832.00
2023-05-01T05:35:40.568Z,10828.00
2023-05-01T05:36:40.554Z,10548.00
2023-05-01T05:37:40.548Z,10388.00
2023-05-01T05:38:40.569Z,10292.00
2023-05-01T05:39:40.518Z,10052.00
2023-05-01T05:40:40.525Z,10160.00
2023-05-01T05:41:40.492Z,10284.00
2023-05-01T05:42:40.471Z,8908.00
2023-05-01T05:43:40.488Z,9452.00
2023-05-01T05:44:40.460Z,8936.00
2023-05-01T05:45:40.472Z,8880.00
2023-05-01T05:46:43.406Z,8204.00
2023-05-01T05:47:43.434Z,7100.00
2023-05-01T05:48:40.406Z,7696.00
2023-05-01T05:49:40.393Z,7328.00
2023-05-01T05:50:40.361Z,9168.00
2023-05-01T05:51:40.340Z,8320.00
2023-05-01T05:52:40.362Z,8032.00
2023-05-01T05:53:40.373Z,7548.00
2023-05-01T05:54:40.300Z,8684.00
2023-05-01T05:55:40.288Z,9312.00
2023-05-01T05:56:40.291Z,9788.00
2023-05-01T05:57:40.274Z,10796.00
2023-05-01T05:58:40.247Z,9892.00
2023-05-01T05:59:40.268Z,8992.00
2023-05-01T06:00:40.227Z,10012.00
2023-05-01T06:01:40.201Z,10124.00
2023-05-01T06:02:40.261Z,10216.00
2023-05-01T06:03:40.298Z,9712.00
2023-05-01T06:04:40.222Z,10260.00
2023-05-01T06:05:40.267Z,10256.00
2023-05-01T06:06:43.233Z,10596.00
2023-05-01T06:07:43.128Z,9648.00
2023-05-01T06:08:40.113Z,8584.00
2023-05-01T06:09:40.114Z,7828.00
2023-05-01T06:10:40.110Z,8388.00
2023-05-01T06:11:40.090Z,7916.00
2023-05-01T06:12:41.366Z,8608.00
2023-05-01T06:13:41.051Z,8012.00
2023-05-01T06:14:40.079Z,8392.00
2023-05-01T06:15:40.134Z,9232.00
2023-05-01T06:16:40.090Z,9372.00
2023-05-01T06:17:40.014Z,9492.00
2023-05-01T06:18:39.974Z,9348.00
2023-05-01T06:19:39.972Z,9024.00
2023-05-01T06:20:39.986Z,8520.00
2023-05-01T06:21:39.934Z,8036.00
2023-05-01T06:22:39.916Z,7652.00
2023-05-01T06:23:39.925Z,7052.00
2023-05-01T06:24:39.906Z,6712.00
2023-05-01T06:25:39.921Z,6260.00
2023-05-01T06:26:42.878Z,6164.00
2023-05-01T06:27:42.848Z,5712.00
2023-05-01T06:28:39.824Z,5440.00
2023-05-01T06:29:39.811Z,5356.00
2023-05-01T06:30:39.802Z,5304.00
2023-05-01T06:31:39.881Z,4964.00
2023-05-01T06:32:39.788Z,4856.00
2023-05-01T06:33:39.766Z,4612.00
2023-05-01T06:34:39.755Z,4368.00
2023-05-01T06:35:39.753Z,4200.00
2023-05-01T06:36:39.723Z,4084.00
2023-05-01T06:37:39.804Z,4096.00
2023-05-01T06:38:39.686Z,4024.00
2023-05-01T06:39:39.700Z,3984.00
2023-05-01T06:40:39.655Z,4040.00
2023-05-01T06:41:39.658Z,4096.00
2023-05-01T06:42:39.619Z,4192.00
2023-05-01T06:43:39.671Z,4240.00
2023-05-01T06:44:39.608Z,4268.00
2023-05-01T06:45:39.595Z,4324.00
2023-05-01T06:46:42.634Z,4384.00
2023-05-01T06:47:42.603Z,4576.00
2023-05-01T06:48:39.534Z,4652.00
2023-05-01T06:49:39.631Z,4608.00
2023-05-01T06:50:39.526Z,4688.00
2023-05-01T06:51:39.504Z,4760.00
2023-05-01T06:52:39.485Z,4884.00
2023-05-01T06:53:39.488Z,4952.00
2023-05-01T06:54:39.454Z,4984.00
2023-05-01T06:55:39.494Z,5004.00
2023-05-01T06:56:39.476Z,5012.00
2023-05-01T06:57:39.421Z,5016.00
2023-05-01T06:58:39.425Z,5000.00
2023-05-01T06:59:39.409Z,5020.00
2023-05-01T07:00:39.517Z,5020.00
2023-05-01T07:01:39.505Z,4976.00
2023-05-01T07:02:39.447Z,4932.00
2023-05-01T07:03:39.534Z,4880.00
2023-05-01T07:04:39.341Z,4772.00
2023-05-01T07:05:39.313Z,4776.00
2023-05-01T07:06:42.418Z,4780.00
2023-05-01T07:07:50.338Z,4716.00
2023-05-01T07:08:40.282Z,4652.00
2023-05-01T07:09:39.254Z,4580.00
2023-05-01T07:10:41.781Z,4500.00
2023-05-01T07:11:39.234Z,4428.00
2023-05-01T07:12:39.260Z,4408.00
2023-05-01T07:13:39.197Z,4376.00
2023-05-01T07:14:39.175Z,4372.00
2023-05-01T07:15:39.165Z,4316.00
2023-05-01T07:16:39.225Z,4256.00
2023-05-01T07:17:39.196Z,4352.00
2023-05-01T07:18:39.326Z,4296.00
2023-05-01T07:19:39.110Z,4320.00
2023-05-01T07:20:39.099Z,4364.00
2023-05-01T07:21:39.082Z,4316.00
2023-05-01T07:22:39.069Z,4328.00
2023-05-01T07:23:39.070Z,4360.00
2023-05-01T07:24:39.090Z,4316.00
2023-05-01T07:25:39.035Z,4324.00
2023-05-01T07:26:42.003Z,4340.00
2023-05-01T07:27:42.027Z,4232.00
2023-05-01T07:28:38.969Z,4212.00
2023-05-01T07:29:38.974Z,4204.00
2023-05-01T07:30:39.157Z,4328.00
2023-05-01T07:31:39.035Z,4416.00
2023-05-01T07:32:38.974Z,4468.00
2023-05-01T07:33:38.938Z,4536.00
2023-05-01T07:34:38.905Z,4608.00
2023-05-01T07:35:38.921Z,4524.00
2023-05-01T07:36:38.914Z,4528.00
2023-05-01T07:37:38.869Z,4532.00
2023-05-01T07:38:38.847Z,4464.00
2023-05-01T07:39:38.834Z,4432.00
2023-05-01T07:40:38.824Z,4500.00
2023-05-01T07:41:38.816Z,4532.00
2023-05-01T07:42:38.829Z,4604.00
2023-05-01T07:43:38.765Z,4768.00
2023-05-01T07:44:38.760Z,4888.00
2023-05-01T07:45:38.791Z,4892.00
2023-05-01T07:46:41.732Z,4804.00
2023-05-01T07:47:41.835Z,4900.00
2023-05-01T07:48:39.156Z,4940.00
2023-05-01T07:49:38.740Z,4960.00
2023-05-01T07:50:38.695Z,4880.00
2023-05-01T07:51:38.654Z,4836.00
2023-05-01T07:52:38.638Z,4904.00
2023-05-01T07:53:38.859Z,4940.00
2023-05-01T07:54:38.615Z,5088.00
2023-05-01T07:55:38.620Z,5080.00
2023-05-01T07:56:38.580Z,5072.00
2023-05-01T07:57:38.574Z,4992.00
2023-05-01T07:58:38.555Z,4904.00
2023-05-01T07:59:38.576Z,4980.00
2023-05-01T08:00:38.554Z,5064.00
2023-05-01T08:01:38.542Z,4992.00
2023-05-01T08:02:38.594Z,4988.00
2023-05-01T08:03:38.802Z,4892.00
2023-05-01T08:04:38.583Z,4796.00
2023-05-01T08:05:38.484Z,4808.00
2023-05-01T08:06:41.516Z,4856.00
2023-05-01T08:07:41.438Z,4940.00
2023-05-01T08:08:38.440Z,4932.00
2023-05-01T08:09:38.413Z,4940.00
2023-05-01T08:10:38.458Z,5180.00
2023-05-01T08:11:38.424Z,5192.00
2023-05-01T08:12:38.369Z,5172.00
2023-05-01T08:13:38.392Z,5280.00
2023-05-01T08:14:38.362Z,5268.00
2023-05-01T08:15:38.383Z,5292.00
2023-05-01T08:16:38.488Z,5248.00
2023-05-01T08:17:38.332Z,5224.00
2023-05-01T08:18:38.278Z,5084.00
2023-05-01T08:19:38.288Z,4820.00
2023-05-01T08:20:38.275Z,4420.00
2023-05-01T08:21:38.315Z,4160.00
2023-05-01T08:22:38.226Z,4108.00
2023-05-01T08:23:38.223Z,4268.00
2023-05-01T08:24:38.202Z,4700.00
2023-05-01T08:25:38.221Z,4952.00
2023-05-01T08:26:41.394Z,4976.00
2023-05-01T08:27:41.175Z,4956.00
2023-05-01T08:28:38.155Z,4928.00
2023-05-01T08:29:38.176Z,4884.00
2023-05-01T08:30:38.130Z,4832.00
2023-05-01T08:31:38.153Z,4792.00
2023-05-01T08:32:38.156Z,4716.00
2023-05-01T08:33:38.153Z,4640.00
2023-05-01T08:34:38.069Z,4824.00
2023-05-01T08:35:38.078Z,4904.00
2023-05-01T08:36:38.066Z,4948.00
2023-05-01T08:37:38.029Z,4968.00
2023-05-01T08:38:38.012Z,5004.00
2023-05-01T08:39:38.068Z,4988.00
2023-05-01T08:40:37.990Z,4672.00
2023-05-01T08:41:37.973Z,4372.00
2023-05-01T08:42:37.955Z,4512.00
2023-05-01T08:43:37.955Z,4376.00
2023-05-01T08:44:37.947Z,4464.00
2023-05-01T08:45:38.204Z,4700.00
2023-05-01T08:46:40.936Z,4712.00
2023-05-01T08:47:40.942Z,4736.00
2023-05-01T08:48:37.868Z,4564.00
2023-05-01T08:49:37.898Z,4716.00
2023-05-01T08:50:37.850Z,4740.00
2023-05-01T08:51:37.853Z,4724.00
2023-05-01T08:52:37.817Z,4852.00
2023-05-01T08:53:37.866Z,4900.00
2023-05-01T08:54:37.787Z,4816.00
2023-05-01T08:55:37.776Z,4928.00
2023-05-01T08:56:37.755Z,5016.00
2023-05-01T08:57:37.780Z,5084.00
2023-05-01T08:58:37.734Z,5180.00
2023-05-01T08:59:37.768Z,5216.00
2023-05-01T09:00:37.724Z,5144.00
2023-05-01T09:01:37.788Z,5120.00
2023-05-01T09:02:37.710Z,5080.00
2023-05-01T09:03:37.739Z,5016.00
2023-05-01T09:04:37.641Z,5100.00
2023-05-01T09:05:37.847Z,5068.00
2023-05-01T09:06:40.659Z,4960.00
2023-05-01T09:07:40.614Z,4900.00
2023-05-01T09:08:37.588Z,4940.00
2023-05-01T09:09:37.619Z,4936.00
2023-05-01T09:10:37.562Z,4816.00
2023-05-01T09:11:37.610Z,4732.00
2023-05-01T09:12:37.529Z,4648.00
2023-05-01T09:13:37.529Z,4576.00
2023-05-01T09:14:37.511Z,4672.00
2023-05-01T09:15:37.523Z,4864.00
2023-05-01T09:16:37.492Z,4816.00
2023-05-01T09:17:37.687Z,4576.00
2023-05-01T09:18:37.446Z,4816.00
2023-05-01T09:19:37.435Z,5268.00
2023-05-01T09:20:37.477Z,5448.00
2023-05-01T09:21:37.405Z,5060.00
2023-05-01T09:22:37.396Z,5256.00
2023-05-01T09:23:37.589Z,5436.00
2023-05-01T09:24:37.375Z,5536.00
2023-05-01T09:25:37.346Z,5720.00
2023-05-01T09:26:40.336Z,5756.00
2023-05-01T09:27:40.336Z,5680.00
2023-05-01T09:28:37.334Z,5688.00
2023-05-01T09:29:37.362Z,5652.00
2023-05-01T09:30:37.285Z,5576.00
2023-05-01T09:31:37.290Z,5372.00
2023-05-01T09:32:37.367Z,5492.00
2023-05-01T09:33:37.237Z,5504.00
2023-05-01T09:34:37.230Z,5448.00
2023-05-01T09:35:37.238Z,5312.00
2023-05-01T09:36:37.261Z,5056.00
2023-05-01T09:37:37.193Z,5160.00
2023-05-01T09:38:37.229Z,5144.00
2023-05-01T09:39:37.160Z,5288.00
2023-05-01T09:40:37.161Z,5288.00
2023-05-01T09:41:37.357Z,5216.00
2023-05-01T09:42:37.120Z,5252.00
2023-05-01T09:43:37.119Z,5292.00
2023-05-01T09:44:37.110Z,5264.00
2023-05-01T09:45:37.097Z,5308.00
2023-05-01T09:46:40.252Z,5392.00
2023-05-01T09:47:40.157Z,5452.00
2023-05-01T09:48:37.079Z,5552.00
2023-05-01T09:49:37.026Z,5568.00
2023-05-01T09:50:37.029Z,5632.00
2023-05-01T09:51:37.005Z,5624.00
2023-05-01T09:52:36.988Z,5568.00
2023-05-01T09:53:36.974Z,5612.00
2023-05-01T09:54:37.053Z,5624.00
2023-05-01T09:55:36.977Z,5756.00
2023-05-01T09:56:36.940Z,5776.00
2023-05-01T09:57:36.913Z,5740.00
2023-05-01T09:58:36.932Z,5760.00
2023-05-01T09:59:36.884Z,5552.00
2023-05-01T10:00:36.932Z,5428.00
2023-05-01T10:01:36.930Z,5280.00
2023-05-01T10:02:36.886Z,5384.00
2023-05-01T10:03:36.883Z,5344.00
2023-05-01T10:04:36.812Z,5324.00
2023-05-01T10:05:36.821Z,5376.00
2023-05-01T10:06:39.999Z,5408.00
2023-05-01T10:07:39.797Z,5280.00
2023-05-01T10:08:36.761Z,5356.00
2023-05-01T10:09:36.767Z,5396.00
2023-05-01T10:10:36.827Z,5396.00
2023-05-01T10:11:36.712Z,5572.00
2023-05-01T10:12:36.907Z,5688.00
2023-05-01T10:13:36.766Z,5780.00
2023-05-01T10:14:36.721Z,5800.00
2023-05-01T10:15:36.660Z,5760.00
2023-05-01T10:16:36.672Z,5800.00
2023-05-01T10:17:36.674Z,5916.00
2023-05-01T10:18:36.688Z,5960.00
2023-05-01T10:19:36.603Z,6064.00
2023-05-01T10:20:36.608Z,6068.00
2023-05-01T10:21:36.613Z,6044.00
2023-05-01T10:22:36.560Z,6020.00
2023-05-01T10:23:36.766Z,5932.00
2023-05-01T10:24:36.540Z,5872.00
2023-05-01T10:25:36.535Z,5856.00
2023-05-01T10:26:39.512Z,5868.00
2023-05-01T10:27:39.481Z,5800.00
2023-05-01T10:28:36.487Z,5764.00
2023-05-01T10:29:36.502Z,5608.00
2023-05-01T10:30:36.522Z,5524.00
2023-05-01T10:31:36.515Z,5436.00
2023-05-01T10:32:36.478Z,5512.00
2023-05-01T10:33:36.413Z,5612.00
2023-05-01T10:34:36.425Z,5632.00
2023-05-01T10:35:36.409Z,5576.00
2023-05-01T10:36:36.365Z,5588.00
2023-05-01T10:37:36.378Z,5576.00
2023-05-01T10:38:36.358Z,5520.00
2023-05-01T10:39:36.335Z,5560.00
2023-05-01T10:40:36.326Z,5628.00
2023-05-01T10:41:36.290Z,5680.00
2023-05-01T10:42:36.298Z,5740.00
2023-05-01T10:43:36.337Z,5844.00
2023-05-01T10:44:36.264Z,5892.00
2023-05-01T10:45:36.230Z,5912.00
2023-05-01T10:46:39.244Z,6028.00
2023-05-01T10:47:39.225Z,6100.00
2023-05-01T10:48:36.193Z,6116.00
2023-05-01T10:49:36.196Z,6116.00
2023-05-01T10:50:36.164Z,6124.00
2023-05-01T10:51:36.167Z,6128.00
2023-05-01T10:52:36.134Z,6132.00
2023-05-01T10:53:36.124Z,6176.00
2023-05-01T10:54:36.325Z,6136.00
2023-05-01T10:55:36.113Z,6132.00
2023-05-01T10:56:36.079Z,6100.00
2023-05-01T10:57:36.069Z,6096.00
2023-05-01T10:58:36.074Z,6192.00
2023-05-01T10:59:36.081Z,6272.00
2023-05-01T11:00:36.088Z,6296.00
2023-05-01T11:01:36.040Z,6424.00
2023-05-01T11:02:36.073Z,6468.00
2023-05-01T11:03:35.994Z,6536.00
2023-05-01T11:04:35.992Z,6572.00
2023-05-01T11:05:38.630Z,6716.00
2023-05-01T11:06:39.132Z,6836.00
2023-05-01T11:07:38.954Z,6948.00
2023-05-01T11:08:35.934Z,7060.00
2023-05-01T11:09:35.901Z,7148.00
2023-05-01T11:10:35.948Z,7204.00
2023-05-01T11:11:35.880Z,7260.00
2023-05-01T11:12:36.072Z,7256.00
2023-05-01T11:13:35.841Z,7352.00
2023-05-01T11:14:35.857Z,7336.00
2023-05-01T11:15:35.826Z,7276.00
2023-05-01T11:16:35.844Z,7256.00
2023-05-01T11:17:35.855Z,7252.00
2023-05-01T11:18:35.987Z,7172.00
2023-05-01T11:19:35.778Z,7264.00
2023-05-01T11:20:35.757Z,7188.00
2023-05-01T11:21:35.764Z,6988.00
2023-05-01T11:22:35.721Z,6976.00
2023-05-01T11:23:35.707Z,6908.00
2023-05-01T11:24:35.761Z,6824.00
2023-05-01T11:25:35.679Z,6724.00
2023-05-01T11:26:38.671Z,6796.00
2023-05-01T11:27:38.767Z,6848.00
2023-05-01T11:28:35.682Z,6844.00
2023-05-01T11:29:35.626Z,6940.00
2023-05-01T11:30:35.726Z,6984.00
2023-05-01T11:31:35.617Z,6948.00
2023-05-01T11:32:35.644Z,6768.00
2023-05-01T11:33:35.578Z,6812.00
2023-05-01T11:34:35.556Z,6948.00
2023-05-01T11:35:35.592Z,6976.00
2023-05-01T11:36:35.764Z,6964.00
2023-05-01T11:37:35.517Z,6780.00
2023-05-01T11:38:35.512Z,6796.00
2023-05-01T11:39:35.512Z,6808.00
2023-05-01T11:40:35.473Z,6780.00
2023-05-01T11:41:35.468Z,6812.00
2023-05-01T11:42:35.545Z,6824.00
2023-05-01T11:43:35.442Z,6900.00
2023-05-01T11:44:35.439Z,6900.00
2023-05-01T11:45:35.483Z,6852.00
2023-05-01T11:46:38.395Z,6892.00
2023-05-01T11:47:38.693Z,6968.00
2023-05-01T11:48:35.411Z,6936.00
2023-05-01T11:49:35.368Z,6948.00
2023-05-01T11:50:35.344Z,6784.00
2023-05-01T11:51:35.323Z,6676.00
2023-05-01T11:52:35.356Z,6536.00
2023-05-01T11:53:35.371Z,6464.00
2023-05-01T11:54:35.304Z,6512.00
2023-05-01T11:55:35.284Z,6688.00
2023-05-01T11:56:35.279Z,6800.00
2023-05-01T11:57:35.239Z,6844.00
2023-05-01T11:58:35.297Z,6920.00
2023-05-01T11:59:35.210Z,6904.00
2023-05-01T12:00:35.201Z,6832.00
2023-05-01T12:01:35.223Z,6704.00
2023-05-01T12:02:35.266Z,6740.00
2023-05-01T12:03:35.241Z,6744.00
2023-05-01T12:04:35.488Z,6664.00
2023-05-01T12:05:35.132Z,6652.00
2023-05-01T12:06:38.148Z,6684.00
2023-05-01T12:07:38.131Z,6644.00
2023-05-01T12:08:35.088Z,6596.00
2023-05-01T12:09:35.091Z,6568.00
2023-05-01T12:10:35.606Z,6492.00
2023-05-01T12:11:35.061Z,6488.00
2023-05-01T12:12:35.033Z,6432.00
2023-05-01T12:13:35.025Z,6384.00
2023-05-01T12:14:35.014Z,6312.00
2023-05-01T12:15:34.997Z,6224.00
2023-05-01T12:16:35.284Z,6140.00
2023-05-01T12:17:34.991Z,5972.00
2023-05-01T12:18:34.960Z,5912.00
2023-05-01T12:19:34.935Z,5804.00
2023-05-01T12:20:34.925Z,5720.00
2023-05-01T12:21:34.908Z,5592.00
2023-05-01T12:22:34.979Z,5556.00
2023-05-01T12:23:35.095Z,5516.00
2023-05-01T12:24:34.884Z,5412.00
2023-05-01T12:25:34.871Z,5344.00